createdAt,value
2022-11-28T00:00:58.476Z,96.29
2022-11-28T00:03:35.596Z,95.97
2022-11-28T00:06:08.787Z,95.98
2022-11-28T00:08:41.256Z,95.79
2022-11-28T00:11:14.772Z,96.00
2022-11-28T00:13:47.773Z,96.31
2022-11-28T00:16:21.930Z,97.31
2022-11-28T00:18:55.584Z,96.74
2022-11-28T00:21:27.569Z,97.06
2022-11-28T00:23:59.866Z,96.84
2022-11-28T00:26:34.827Z,97.28
2022-11-28T00:29:11.462Z,97.03
2022-11-28T00:31:45.347Z,96.42
2022-11-28T00:34:18.171Z,97.09
2022-11-28T00:36:50.678Z,97.61
2022-11-28T00:39:23.007Z,97.46
2022-11-28T00:41:54.690Z,97.28
2022-11-28T00:44:26.748Z,97.10
2022-11-28T00:46:58.414Z,96.51
2022-11-28T00:49:30.164Z,96.28
2022-11-28T00:52:01.793Z,96.17
2022-11-28T00:54:33.524Z,95.56
2022-11-28T00:57:05.200Z,95.92
2022-11-28T00:59:36.835Z,95.98
2022-11-28T01:02:08.615Z,95.89
2022-11-28T01:04:40.979Z,96.05
2022-11-28T01:07:13.069Z,96.02
2022-11-28T01:09:45.385Z,95.98
2022-11-28T01:12:17.765Z,96.10
2022-11-28T01:14:49.994Z,96.42
2022-11-28T01:17:22.018Z,96.55
2022-11-28T01:19:54.479Z,96.27
2022-11-28T01:22:26.238Z,95.94
2022-11-28T01:24:57.957Z,95.66
2022-11-28T01:27:29.619Z,95.52
2022-11-28T01:30:01.285Z,95.46
2022-11-28T01:32:32.987Z,95.36
2022-11-28T01:35:05.267Z,95.61
2022-11-28T01:37:37.024Z,95.13
2022-11-28T01:40:12.197Z,94.71
2022-11-28T01:42:44.062Z,94.53
2022-11-28T01:45:23.569Z,94.31
2022-11-28T01:47:58.022Z,94.08
2022-11-28T01:50:31.366Z,93.94
2022-11-28T01:53:08.441Z,93.77
2022-11-28T01:55:44.301Z,93.37
2022-11-28T01:58:16.809Z,92.97
2022-11-28T02:00:49.625Z,92.81
2022-11-28T02:03:27.141Z,92.95
2022-11-28T02:05:59.604Z,92.78
2022-11-28T02:08:35.434Z,92.44
2022-11-28T02:11:34.115Z,92.70
2022-11-28T02:14:16.566Z,92.70
2022-11-28T02:17:02.159Z,92.37
2022-11-28T02:20:13.415Z,92.14
2022-11-28T02:22:54.383Z,91.77
2022-11-28T02:25:44.786Z,91.75
2022-11-28T02:28:35.137Z,91.32
2022-11-28T02:31:16.790Z,91.05
2022-11-28T02:33:53.900Z,90.98
2022-11-28T02:36:31.883Z,90.75
2022-11-28T02:39:12.499Z,90.09
2022-11-28T02:41:47.993Z,89.88
2022-11-28T02:44:24.346Z,89.89
2022-11-28T02:47:00.865Z,89.67
2022-11-28T02:49:38.378Z,89.55
2022-11-28T02:52:14.537Z,89.26
2022-11-28T02:54:47.998Z,89.11
2022-11-28T02:57:20.165Z,88.76
2022-11-28T02:59:52.861Z,89.32
2022-11-28T03:02:28.999Z,89.40
2022-11-28T03:05:14.353Z,89.56
2022-11-28T03:08:07.128Z,89.76
2022-11-28T03:10:46.342Z,89.77
2022-11-28T03:13:24.747Z,89.90
2022-11-28T03:16:14.145Z,89.77
2022-11-28T03:18:55.273Z,90.48
2022-11-28T03:21:33.973Z,90.49
2022-11-28T03:24:13.503Z,90.85
2022-11-28T03:26:54.028Z,90.26
2022-11-28T03:29:32.802Z,90.02
2022-11-28T03:32:10.744Z,89.83
2022-11-28T03:34:47.075Z,89.50
2022-11-28T03:37:23.610Z,90.11
2022-11-28T03:40:01.578Z,90.36
2022-11-28T03:42:38.473Z,89.98
2022-11-28T03:45:15.014Z,89.82
2022-11-28T03:47:52.451Z,90.24
2022-11-28T03:50:30.376Z,90.20
2022-11-28T03:53:06.893Z,90.33
2022-11-28T03:55:44.814Z,90.73
2022-11-28T03:58:24.184Z,90.46
2022-11-28T04:01:04.761Z,90.43
2022-11-28T04:03:47.291Z,90.49
2022-11-28T04:06:24.077Z,90.22
2022-11-28T04:09:03.779Z,90.13
2022-11-28T04:11:40.666Z,90.61
2022-11-28T04:14:20.688Z,90.79
2022-11-28T04:16:59.355Z,90.11
2022-11-28T04:19:36.667Z,89.74
2022-11-28T04:22:15.838Z,89.87
2022-11-28T04:24:52.522Z,89.64
2022-11-28T04:27:28.979Z,89.73
2022-11-28T04:30:05.549Z,89.56
2022-11-28T04:32:42.162Z,89.48
2022-11-28T04:35:17.869Z,89.20
2022-11-28T04:37:53.224Z,89.03
2022-11-28T04:40:27.823Z,88.91
2022-11-28T04:43:03.459Z,88.73
2022-11-28T04:45:39.261Z,89.24
2022-11-28T04:48:11.356Z,88.65
2022-11-28T04:50:50.037Z,89.12
2022-11-28T04:53:29.225Z,88.84
2022-11-28T04:56:05.819Z,88.60
2022-11-28T04:58:41.443Z,88.73
2022-11-28T05:01:19.932Z,88.59
2022-11-28T05:03:51.989Z,89.21
2022-11-28T05:06:30.673Z,88.90
2022-11-28T05:09:03.143Z,88.66
2022-11-28T05:11:35.236Z,88.69
2022-11-28T05:14:07.746Z,88.66
2022-11-28T05:16:39.892Z,88.18
2022-11-28T05:19:11.621Z,88.46
2022-11-28T05:21:43.361Z,88.74
2022-11-28T05:24:15.593Z,88.65
2022-11-28T05:26:47.908Z,88.63
2022-11-28T05:29:19.699Z,88.84
2022-11-28T05:31:51.461Z,88.64
2022-11-28T05:34:23.185Z,88.35
2022-11-28T05:36:54.921Z,88.50
2022-11-28T05:39:27.001Z,88.67
2022-11-28T05:41:59.010Z,88.49
2022-11-28T05:44:33.653Z,88.18
2022-11-28T05:47:05.559Z,88.25
2022-11-28T05:49:37.742Z,88.06
2022-11-28T05:52:09.495Z,87.85
2022-11-28T05:54:41.207Z,88.42
2022-11-28T05:57:13.475Z,88.11
2022-11-28T05:59:45.649Z,87.92
2022-11-28T06:02:17.526Z,87.96
2022-11-28T06:04:49.785Z,87.88
2022-11-28T06:07:21.987Z,87.70
2022-11-28T06:09:54.046Z,87.57
2022-11-28T06:12:26.258Z,87.78
2022-11-28T06:14:59.164Z,87.73
2022-11-28T06:17:33.027Z,88.19
2022-11-28T06:20:05.395Z,88.20
2022-11-28T06:22:37.998Z,87.78
2022-11-28T06:25:10.054Z,87.85
2022-11-28T06:27:42.001Z,88.39
2022-11-28T06:30:14.837Z,88.36
2022-11-28T06:32:46.531Z,88.15
2022-11-28T06:35:18.582Z,88.03
2022-11-28T06:37:50.605Z,88.32
2022-11-28T06:40:25.763Z,88.37
2022-11-28T06:42:57.865Z,88.34
2022-11-28T06:45:29.808Z,87.88
2022-11-28T06:48:01.741Z,87.83
2022-11-28T06:50:35.088Z,87.96
2022-11-28T06:53:06.752Z,87.83
2022-11-28T06:55:38.592Z,87.79
2022-11-28T06:58:10.310Z,87.20
2022-11-28T07:00:42.143Z,86.72
2022-11-28T07:03:14.360Z,86.26
2022-11-28T07:05:46.618Z,86.50
2022-11-28T07:08:18.340Z,86.44
2022-11-28T07:10:50.098Z,86.54
2022-11-28T07:13:21.874Z,86.48
2022-11-28T07:15:56.588Z,86.31
2022-11-28T07:18:28.482Z,85.96
2022-11-28T07:21:00.837Z,85.66
2022-11-28T07:23:32.626Z,85.31
2022-11-28T07:26:06.574Z,85.40
2022-11-28T07:28:38.514Z,85.35
2022-11-28T07:31:12.316Z,84.99
2022-11-28T07:33:46.479Z,85.37
2022-11-28T07:36:20.508Z,84.93
2022-11-28T07:38:55.039Z,84.88
2022-11-28T07:41:27.371Z,84.42
2022-11-28T07:43:59.191Z,84.67
2022-11-28T07:46:33.086Z,84.70
2022-11-28T07:49:05.302Z,84.66
2022-11-28T07:51:37.055Z,84.94
2022-11-28T07:54:09.569Z,84.92
2022-11-28T07:59:33.359Z,84.65
2022-11-28T08:02:05.181Z,84.67
2022-11-28T08:04:37.429Z,84.85
2022-11-28T08:07:09.288Z,84.67
2022-11-28T08:09:41.264Z,84.47
2022-11-28T08:12:13.127Z,84.23
2022-11-28T08:14:45.233Z,84.22
2022-11-28T08:17:17.369Z,84.12
2022-11-28T08:19:49.170Z,84.02
2022-11-28T08:22:20.998Z,83.92
2022-11-28T08:24:52.665Z,83.99
2022-11-28T08:27:24.414Z,83.85
2022-11-28T08:29:56.162Z,83.38
2022-11-28T08:32:29.676Z,83.17
2022-11-28T08:35:01.501Z,83.72
2022-11-28T08:37:33.161Z,83.68
2022-11-28T08:40:05.840Z,83.48
2022-11-28T08:42:36.301Z,83.34
2022-11-28T08:45:11.727Z,83.09
2022-11-28T08:47:44.002Z,83.00
2022-11-28T08:50:15.683Z,82.68
2022-11-28T08:52:48.143Z,82.78
2022-11-28T08:55:25.084Z,82.08
2022-11-28T08:58:03.976Z,82.86
2022-11-28T09:00:35.896Z,82.74
2022-11-28T09:03:08.025Z,82.88
2022-11-28T09:05:39.765Z,82.51
2022-11-28T09:08:12.099Z,82.14
2022-11-28T09:10:45.309Z,81.82
2022-11-28T09:13:17.784Z,81.70
2022-11-28T09:15:52.615Z,82.25
2022-11-28T09:18:27.167Z,82.10
2022-11-28T09:21:04.603Z,81.60
2022-11-28T09:23:36.960Z,81.59
2022-11-28T09:26:12.439Z,81.12
2022-11-28T09:28:45.506Z,80.78
2022-11-28T09:31:19.734Z,80.48
2022-11-28T09:33:51.872Z,81.05
2022-11-28T09:36:25.585Z,81.22
2022-11-28T09:39:00.347Z,81.11
2022-11-28T09:41:51.709Z,81.27
2022-11-28T09:44:30.704Z,81.09
2022-11-28T09:47:06.960Z,80.89
2022-11-28T09:49:47.083Z,80.65
2022-11-28T09:52:29.999Z,79.91
2022-11-28T09:55:13.090Z,79.82
2022-11-28T09:57:48.010Z,79.95
2022-11-28T10:00:22.552Z,79.61
2022-11-28T10:03:11.081Z,79.01
2022-11-28T10:05:54.255Z,78.25
2022-11-28T10:08:38.823Z,78.35
2022-11-28T10:11:24.558Z,78.81
2022-11-28T10:14:08.447Z,78.55
2022-11-28T10:16:52.629Z,78.60
2022-11-28T10:19:53.339Z,78.12
2022-11-28T10:22:36.098Z,77.12
2022-11-28T10:25:17.548Z,77.25
2022-11-28T10:27:50.531Z,77.95
2022-11-28T10:30:26.143Z,77.48
2022-11-28T10:33:05.827Z,76.71
2022-11-28T10:35:44.014Z,76.03
2022-11-28T10:38:17.605Z,76.02
2022-11-28T10:40:57.158Z,75.59
2022-11-28T10:43:39.355Z,75.58
2022-11-28T10:46:31.295Z,75.87
2022-11-28T10:49:15.246Z,75.68
2022-11-28T10:52:01.611Z,75.92
2022-11-28T10:54:58.251Z,76.24
2022-11-28T10:57:40.755Z,76.18
2022-11-28T11:00:14.709Z,75.56
2022-11-28T11:02:49.271Z,75.37
2022-11-28T11:05:23.027Z,75.26
2022-11-28T11:07:57.233Z,75.64
2022-11-28T11:10:34.645Z,76.30
2022-11-28T11:13:17.038Z,76.22
2022-11-28T11:15:50.283Z,76.18
2022-11-28T11:18:27.445Z,75.81
2022-11-28T11:21:16.580Z,76.20
2022-11-28T11:23:50.243Z,76.42
2022-11-28T11:26:30.203Z,77.35
2022-11-28T11:29:02.285Z,78.07
2022-11-28T11:31:43.136Z,78.18
2022-11-28T11:34:19.013Z,77.77
2022-11-28T11:36:51.506Z,77.93
2022-11-28T11:39:25.498Z,77.77
2022-11-28T11:42:20.780Z,77.35
2022-11-28T11:44:55.319Z,76.92
2022-11-28T11:47:44.672Z,75.63
2022-11-28T11:50:20.442Z,74.72
2022-11-28T11:53:06.389Z,74.96
2022-11-28T11:55:47.445Z,75.22
2022-11-28T11:58:24.613Z,75.85
2022-11-28T12:01:00.896Z,77.03
2022-11-28T12:03:39.207Z,77.16
2022-11-28T12:06:17.193Z,77.88
2022-11-28T12:08:53.089Z,78.18
2022-11-28T12:11:29.189Z,78.32
2022-11-28T12:14:05.800Z,77.87
2022-11-28T12:16:49.599Z,78.12
2022-11-28T12:19:29.373Z,77.69
2022-11-28T12:22:12.134Z,76.61
2022-11-28T12:24:55.464Z,75.94
2022-11-28T12:27:41.541Z,76.30
2022-11-28T12:30:26.189Z,76.87
2022-11-28T12:33:12.579Z,76.36
2022-11-28T12:35:48.150Z,75.90
2022-11-28T12:38:32.478Z,75.84
2022-11-28T12:41:32.033Z,76.24
2022-11-28T12:44:14.593Z,76.75
2022-11-28T12:46:53.912Z,77.18
2022-11-28T12:49:36.870Z,77.14
2022-11-28T12:52:18.476Z,77.34
2022-11-28T12:55:05.037Z,77.39
2022-11-28T12:57:43.783Z,77.27
2022-11-28T13:00:20.998Z,77.33
2022-11-28T13:03:06.920Z,77.18
2022-11-28T13:05:49.033Z,77.31
2022-11-28T13:08:34.825Z,77.28
2022-11-28T13:11:20.358Z,77.64
2022-11-28T13:13:59.744Z,77.97
2022-11-28T13:16:42.343Z,78.55
2022-11-28T13:19:24.927Z,78.80
2022-11-28T13:22:03.487Z,78.55
2022-11-28T13:24:43.841Z,78.30
2022-11-28T13:27:22.733Z,78.65
2022-11-28T13:30:10.095Z,78.72
2022-11-28T13:32:52.168Z,79.16
2022-11-28T13:35:26.097Z,79.74
2022-11-28T13:41:05.003Z,80.08
2022-11-28T13:43:47.999Z,79.51
2022-11-28T13:46:20.424Z,79.48
2022-11-28T13:49:14.418Z,79.36
2022-11-28T13:51:47.781Z,79.22
2022-11-28T13:54:48.262Z,79.22
2022-11-28T13:57:26.895Z,78.89
2022-11-28T14:00:04.625Z,79.30
2022-11-28T14:02:50.880Z,79.27
2022-11-28T14:05:36.329Z,79.07
2022-11-28T14:08:09.059Z,77.88
2022-11-28T14:11:27.236Z,77.66
2022-11-28T14:14:15.343Z,78.09
2022-11-28T14:17:02.673Z,78.33
2022-11-28T14:19:53.936Z,78.32
2022-11-28T14:22:42.410Z,77.81
2022-11-28T14:25:21.293Z,77.79
2022-11-28T14:27:58.137Z,78.01
2022-11-28T14:30:35.193Z,78.46
2022-11-28T14:33:16.961Z,78.98
2022-11-28T14:36:34.769Z,79.24
2022-11-28T14:39:13.582Z,79.18
2022-11-28T14:42:58.376Z,79.24
2022-11-28T14:45:42.195Z,80.04
2022-11-28T14:48:32.211Z,81.12
2022-11-28T14:51:04.140Z,81.03
2022-11-28T14:53:48.022Z,80.92
2022-11-28T14:56:27.515Z,81.05
2022-11-28T14:59:03.633Z,81.14
2022-11-28T15:01:53.166Z,81.27
2022-11-28T15:04:52.288Z,81.10
2022-11-28T15:07:46.186Z,81.31
2022-11-28T15:10:25.011Z,81.51
2022-11-28T15:13:08.725Z,81.90
2022-11-28T15:15:49.890Z,82.68
2022-11-28T15:18:24.675Z,83.19
2022-11-28T15:21:02.154Z,83.18
2022-11-28T15:23:38.465Z,83.10
2022-11-28T15:26:21.611Z,83.64
2022-11-28T15:29:12.190Z,84.05
2022-11-28T15:31:44.709Z,84.73
2022-11-28T15:34:26.870Z,85.29
2022-11-28T15:37:01.481Z,85.32
2022-11-28T15:39:42.267Z,85.23
2022-11-28T15:42:23.858Z,86.13
2022-11-28T15:44:59.268Z,85.96
2022-11-28T15:47:31.130Z,86.14
2022-11-28T15:50:14.557Z,86.14
2022-11-28T15:52:58.336Z,86.21
2022-11-28T15:55:35.067Z,85.97
2022-11-28T15:58:19.447Z,86.98
2022-11-28T16:00:55.775Z,87.22
2022-11-28T16:03:32.100Z,87.12
2022-11-28T16:06:06.871Z,87.12
2022-11-28T16:08:42.285Z,87.18
2022-11-28T16:11:20.072Z,87.51
2022-11-28T16:13:53.230Z,87.35
2022-11-28T16:16:29.192Z,87.21
2022-11-28T16:19:06.983Z,87.50
2022-11-28T16:21:44.710Z,87.45
2022-11-28T16:24:27.592Z,87.59
2022-11-28T16:27:00.136Z,88.41
2022-11-28T16:29:35.150Z,88.25
2022-11-28T16:32:22.949Z,88.10
2022-11-28T16:34:57.213Z,87.78
2022-11-28T16:37:31.049Z,87.79
2022-11-28T16:40:06.763Z,88.14
2022-11-28T16:42:38.597Z,89.25
2022-11-28T16:45:30.787Z,89.28
2022-11-28T16:48:11.543Z,89.58
2022-11-28T16:51:14.376Z,89.71
2022-11-28T16:53:47.887Z,89.72
2022-11-28T16:56:43.456Z,89.69
2022-11-28T16:59:17.437Z,89.78
2022-11-28T17:01:53.135Z,89.73
2022-11-28T17:04:26.821Z,90.07
2022-11-28T17:07:05.290Z,89.87
2022-11-28T17:09:37.465Z,89.88
2022-11-28T17:12:15.857Z,90.45
2022-11-28T17:14:48.219Z,90.51
2022-11-28T17:17:23.260Z,90.29
2022-11-28T17:19:55.210Z,90.97
2022-11-28T17:22:34.865Z,90.61
2022-11-28T17:25:17.518Z,90.74
2022-11-28T17:27:49.683Z,90.70
2022-11-28T17:30:23.177Z,90.37
2022-11-28T17:32:56.720Z,90.43
2022-11-28T17:35:42.258Z,90.30
2022-11-28T17:38:27.281Z,90.45
2022-11-28T17:41:11.346Z,90.06
2022-11-28T17:43:50.137Z,90.29
2022-11-28T17:46:25.343Z,91.25
2022-11-28T17:49:04.605Z,90.80
2022-11-28T17:51:39.141Z,90.34
2022-11-28T17:54:16.494Z,90.29
2022-11-28T17:56:53.908Z,90.35
2022-11-28T17:59:38.245Z,90.44
2022-11-28T18:02:17.460Z,90.26
2022-11-28T18:04:56.221Z,90.29
2022-11-28T18:07:31.144Z,90.68
2022-11-28T18:10:04.723Z,90.35
2022-11-28T18:12:38.625Z,90.23
2022-11-28T18:15:16.301Z,89.75
2022-11-28T18:17:49.938Z,90.39
2022-11-28T18:20:23.788Z,90.28
2022-11-28T18:22:57.918Z,89.78
2022-11-28T18:25:33.750Z,89.91
2022-11-28T18:28:12.208Z,89.50
2022-11-28T18:30:49.765Z,89.17
2022-11-28T18:33:22.466Z,89.82
2022-11-28T18:35:58.322Z,89.54
2022-11-28T18:38:37.326Z,89.67
2022-11-28T18:41:19.249Z,90.26
2022-11-28T18:44:07.117Z,89.96
2022-11-28T18:46:54.174Z,89.82
2022-11-28T18:49:31.173Z,89.46
2022-11-28T18:52:05.405Z,89.35
2022-11-28T18:54:43.687Z,89.18
2022-11-28T18:57:25.501Z,89.25
2022-11-28T19:00:05.717Z,88.91
2022-11-28T19:02:40.962Z,89.06
2022-11-28T19:05:14.515Z,89.13
2022-11-28T19:07:46.958Z,89.00
2022-11-28T19:10:20.260Z,88.99
2022-11-28T19:12:52.316Z,89.22
2022-11-28T19:15:24.374Z,89.16
2022-11-28T19:17:56.669Z,89.00
2022-11-28T19:20:29.194Z,89.88
2022-11-28T19:23:01.323Z,89.23
2022-11-28T19:25:33.284Z,89.09
2022-11-28T19:28:05.273Z,89.56
2022-11-28T19:30:37.191Z,89.40
2022-11-28T19:33:09.003Z,89.47
2022-11-28T19:35:43.733Z,89.82
2022-11-28T19:38:15.643Z,89.28
2022-11-28T19:40:47.498Z,88.79
2022-11-28T19:43:19.251Z,88.63
2022-11-28T19:45:57.837Z,89.13
2022-11-28T19:48:31.234Z,88.97
2022-11-28T19:51:04.110Z,88.68
2022-11-28T19:53:38.591Z,89.18
2022-11-28T19:56:15.516Z,88.84
2022-11-28T19:58:48.129Z,89.04
2022-11-28T20:01:21.172Z,88.96
2022-11-28T20:03:56.676Z,88.78
2022-11-28T20:06:30.902Z,89.33
2022-11-28T20:09:05.653Z,89.34
2022-11-28T20:11:39.302Z,88.97
2022-11-28T20:14:14.838Z,89.20
2022-11-28T20:16:47.229Z,89.10
2022-11-28T20:19:20.295Z,88.79
2022-11-28T20:21:58.464Z,89.17
2022-11-28T20:24:30.755Z,90.17
2022-11-28T20:27:02.589Z,89.82
2022-11-28T20:29:34.335Z,89.32
2022-11-28T20:32:06.600Z,88.83
2022-11-28T20:34:38.305Z,89.47
2022-11-28T20:37:09.936Z,89.24
2022-11-28T20:39:41.941Z,89.19
2022-11-28T20:42:13.944Z,88.99
2022-11-28T20:44:45.757Z,88.93
2022-11-28T20:47:17.514Z,89.11
2022-11-28T20:49:49.583Z,89.22
2022-11-28T20:52:21.366Z,90.03
2022-11-28T20:54:53.136Z,89.95
2022-11-28T20:57:25.195Z,90.36
2022-11-28T20:59:57.501Z,90.13
2022-11-28T21:02:29.345Z,89.92
2022-11-28T21:05:01.589Z,89.78
2022-11-28T21:07:33.411Z,90.21
2022-11-28T21:10:05.623Z,90.10
2022-11-28T21:12:37.360Z,89.80
2022-11-28T21:15:10.876Z,89.88
2022-11-28T21:17:42.685Z,89.92
2022-11-28T21:20:15.265Z,90.41
2022-11-28T21:22:47.040Z,90.67
2022-11-28T21:25:19.313Z,90.86
2022-11-28T21:27:50.937Z,90.80
2022-11-28T21:30:23.517Z,90.56
2022-11-28T21:32:55.321Z,90.46
2022-11-28T21:35:27.342Z,90.54
2022-11-28T21:37:58.906Z,90.45
2022-11-28T21:40:31.175Z,90.54
2022-11-28T21:43:02.954Z,90.83
2022-11-28T21:45:36.475Z,91.32
2022-11-28T21:48:09.122Z,91.30
2022-11-28T21:50:48.727Z,91.54
2022-11-28T21:53:22.194Z,91.15
2022-11-28T21:55:55.220Z,91.15
2022-11-28T21:58:28.458Z,91.05
2022-11-28T22:01:04.158Z,90.95
2022-11-28T22:03:37.404Z,90.88
2022-11-28T22:06:15.799Z,90.90
2022-11-28T22:08:50.004Z,91.08
2022-11-28T22:11:24.288Z,91.16
2022-11-28T22:13:56.981Z,90.88
2022-11-28T22:16:30.341Z,91.38
2022-11-28T22:19:04.105Z,91.50
2022-11-28T22:21:56.483Z,91.38
2022-11-28T22:24:29.428Z,91.48
2022-11-28T22:27:01.239Z,90.85
2022-11-28T22:29:33.055Z,90.70
2022-11-28T22:32:05.057Z,90.53
2022-11-28T22:34:39.907Z,90.29
2022-11-28T22:37:12.736Z,90.51
2022-11-28T22:39:44.596Z,90.65
2022-11-28T22:42:16.435Z,90.33
2022-11-28T22:44:49.638Z,90.46
2022-11-28T22:47:21.446Z,90.09
2022-11-28T22:49:53.071Z,90.14
2022-11-28T22:52:25.554Z,90.27
2022-11-28T22:54:57.512Z,90.29
2022-11-28T22:57:29.372Z,89.57
2022-11-28T23:00:01.730Z,89.76
2022-11-28T23:02:33.583Z,89.40
2022-11-28T23:05:06.339Z,90.08
2022-11-28T23:07:38.408Z,90.26
2022-11-28T23:10:12.070Z,90.20
2022-11-28T23:12:42.142Z,89.75
2022-11-28T23:15:13.917Z,89.72
2022-11-28T23:17:46.221Z,89.74
2022-11-28T23:20:18.237Z,89.37
2022-11-28T23:22:50.329Z,89.41
2022-11-28T23:25:22.262Z,89.15
2022-11-28T23:27:54.250Z,88.93
2022-11-28T23:30:26.384Z,88.83
2022-11-28T23:32:58.074Z,88.57
2022-11-28T23:35:30.597Z,88.64
2022-11-28T23:38:02.248Z,89.02
2022-11-28T23:40:34.106Z,88.75
2022-11-28T23:43:05.806Z,88.97
2022-11-28T23:45:37.732Z,89.28
2022-11-28T23:48:09.764Z,88.97
2022-11-28T23:50:41.482Z,88.76
2022-11-28T23:53:13.913Z,88.38
2022-11-28T23:55:46.220Z,88.35
2022-11-28T23:58:18.210Z,88.12
